• Join FlightAware (Why Join?)
  • Login
  • US Flag 
12:23AM EDT


 

Airport Tracker/Info


-or-


 

Live Flight TrackerFlight Track Log ✈ N360FE ✈ 20-Apr-2013 ✈ KMEM - CYMX

Flight Track Log - Related Links

Times and Time Zones

All times are in EDT time to prevent confusion due to time zone crossing. See the N360FE flight status page for this flight to view local times or setup timezone preferences in your user account.

Time Position Orientation Groundspeed Altitude Reporting Facility
EDT Latitude Longitude Course Direction KTS MPH feet Rate Location/Type
05:13AM 35.0667 -90.0000 270° West 163 188 1,000  Level KMEM
05:13AM 35.0667 -90.0333 270° West 198 228 2,000 1,560 Climbing KMEM
05:14AM 35.1167 -90.0833 321° Northwest 257 296 3,700 2,400 Climbing KMEM
05:16AM 35.1833 -90.0833 360° North 251 289 7,000 2,400 Climbing KMEM
05:17AM 35.3158 -90.0719 North 260 299 10,800 1,560 Climbing Memphis Center
05:18AM 35.3950 -90.0667 North 284 327 11,500 1,140 Climbing Memphis Center
05:19AM 35.4992 -90.0611 North 349 402 13,100 1,680 Climbing Memphis Center
05:20AM 35.6097 -90.0531 North 379 436 14,900 1,980 Climbing Memphis Center
05:21AM 35.7286 -90.0475 North 389 448 17,100 1,800 Climbing Memphis Center
05:22AM 35.8414 -90.0547 357° North 389 448 18,500 1,500 Climbing Memphis Center
05:23AM 35.9581 -90.0697 354° North 406 467 20,100 1,500 Climbing Memphis Center
05:24AM 36.0789 -90.0617 North 417 480 21,600 1,440 Climbing Memphis Center
05:25AM 36.1978 -89.9944 25° Northeast 441 507 23,000 1,200 Climbing Memphis Center
05:26AM 36.2953 -89.8806 43° Northeast 455 524 24,100 1,140 Climbing Memphis Center
05:27AM 36.3947 -89.7561 45° Northeast 474 545 25,300 1,020 Climbing Memphis Center
05:33AM 36.9140 -89.0950 45° Northeast 523 602 30,600 840 Climbing FlightAware
05:33AM 36.9910 -89.0180 39° Northeast 523 602 30,600  Level FlightAware
05:34AM 37.0560 -88.9550 38° Northeast 523 602 30,600  Level FlightAware
05:35AM 37.1210 -88.8920 38° Northeast 523 602 30,600  Level FlightAware
05:35AM 37.2020 -88.8120 38° Northeast 523 602 30,600  Level FlightAware
05:36AM 37.2670 -88.7480 38° Northeast 523 602 30,600 1,500 Level FlightAware
05:37AM 37.3740 -88.4970 62° Northeast 536 617 33,000 1,440 Climbing FlightAware
05:38AM 37.4540 -88.3910 46° Northeast 537 618 33,000  Level FlightAware
05:38AM 37.5230 -88.3000 46° Northeast 539 620 33,000  Level FlightAware
05:39AM 37.5990 -88.2010 46° Northeast 535 616 33,000  Level FlightAware
05:40AM 37.6700 -88.1080 46° Northeast 536 617 33,000  Level FlightAware
05:41AM 37.7370 -88.0200 46° Northeast 538 619 33,000  Level FlightAware
05:41AM 37.8140 -87.9150 47° Northeast 539 620 33,000  Level FlightAware
05:42AM 37.8840 -87.8230 46° Northeast 541 623 33,000  Level FlightAware
05:43AM 37.9580 -87.7190 48° Northeast 544 626 33,000  Level FlightAware
05:43AM 38.0250 -87.6160 50° Northeast 545 627 33,000  Level FlightAware
05:44AM 38.0900 -87.5210 49° Northeast 547 629 33,000  Level FlightAware
05:45AM 38.1630 -87.4100 50° Northeast 548 631 33,000  Level FlightAware
05:45AM 38.2270 -87.3130 50° Northeast 549 632 33,000  Level FlightAware
05:46AM 38.3030 -87.1970 50° Northeast 551 634 33,000  Level FlightAware
05:47AM 38.3660 -87.1020 50° Northeast 552 635 33,000  Level FlightAware
05:48AM 38.4330 -86.9990 50° Northeast 552 635 33,000  Level FlightAware
05:48AM 38.5060 -86.8860 50° Northeast 555 639 33,000  Level FlightAware
05:49AM 38.5720 -86.7850 50° Northeast 555 639 33,000  Level FlightAware
05:50AM 38.6360 -86.6860 50° Northeast 555 639 33,000  Level FlightAware
05:50AM 38.7080 -86.5740 50° Northeast 556 640 33,000  Level FlightAware
05:51AM 38.7720 -86.4670 52° Northeast 560 644 33,000  Level FlightAware
05:52AM 38.8430 -86.3470 53° Northeast 559 643 33,000  Level FlightAware
05:52AM 38.9050 -86.2380 54° Northeast 559 643 33,000  Level FlightAware
05:53AM 38.9690 -86.1290 53° Northeast 559 643 33,000  Level FlightAware
05:54AM 39.0370 -86.0120 53° Northeast 559 643 33,000  Level FlightAware
05:55AM 39.0950 -85.9100 54° Northeast 560 644 33,000  Level FlightAware
05:55AM 39.1660 -85.7860 54° Northeast 563 648 33,000  Level FlightAware
05:56AM 39.2290 -85.6780 53° Northeast 564 649 33,000  Level FlightAware
05:57AM 39.2990 -85.5530 54° Northeast 565 650 33,000  Level FlightAware
05:57AM 39.3540 -85.4550 54° Northeast 566 651 33,000 60 Level FlightAware
05:58AM 39.4230 -85.3350 53° Northeast 567 652 33,100 60 Climbing FlightAware
05:59AM 39.4920 -85.2140 54° Northeast 566 651 33,100 -120 Level FlightAware
05:59AM 39.5540 -85.1020 54° Northeast 566 651 33,000 -120 Descending FlightAware
06:00AM 39.6220 -84.9820 54° Northeast 565 650 33,000  Level FlightAware
06:01AM 39.6860 -84.8690 54° Northeast 565 650 33,000  Level FlightAware
06:02AM 39.7450 -84.7620 54° Northeast 564 649 33,000  Level FlightAware
06:02AM 39.8160 -84.6320 55° Northeast 565 650 33,000  Level FlightAware
06:03AM 39.8960 -84.4890 54° Northeast 564 649 33,000  Level FlightAware
06:04AM 39.9810 -84.3340 54° Northeast 566 651 33,000  Level FlightAware
06:05AM 40.0410 -84.2220 55° Northeast 568 654 33,000  Level FlightAware
06:06AM 40.1130 -84.0910 54° Northeast 568 654 33,000  Level FlightAware
06:06AM 40.1730 -83.9820 54° Northeast 568 654 33,000  Level FlightAware
06:07AM 40.2400 -83.8580 55° Northeast 567 652 33,000  Level FlightAware
06:08AM 40.3000 -83.7460 55° Northeast 569 655 33,000  Level FlightAware
06:08AM 40.3610 -83.6300 55° Northeast 570 656 33,000  Level FlightAware
06:09AM 40.4300 -83.5030 54° Northeast 571 657 33,000  Level FlightAware
06:10AM 40.4910 -83.3890 55° Northeast 571 657 33,000  Level FlightAware
06:10AM 40.5520 -83.2730 55° Northeast 571 657 33,000  Level FlightAware
06:11AM 40.6190 -83.1480 55° Northeast 572 658 33,000  Level FlightAware
06:12AM 40.6860 -83.0210 55° Northeast 572 658 33,000  Level FlightAware
06:13AM 40.7470 -82.9070 55° Northeast 574 661 33,000  Level FlightAware
06:13AM 40.8150 -82.7740 56° Northeast 576 663 33,000  Level FlightAware
06:14AM 40.8750 -82.6570 56° Northeast 578 665 33,000 60 Level FlightAware
06:15AM 40.9310 -82.5490 56° Northeast 580 667 33,100 60 Climbing FlightAware
06:15AM 41.0060 -82.4060 55° Northeast 581 669 33,100 -120 Level FlightAware
06:16AM 41.0540 -82.3120 56° Northeast 580 667 33,000 -120 Descending FlightAware
06:17AM 41.1310 -82.1610 56° Northeast 579 666 33,000  Level FlightAware
06:17AM 41.1940 -82.0380 56° Northeast 580 667 33,000 360 Level FlightAware
06:18AM 41.2530 -81.9230 56° Northeast 574 661 33,500 660 Climbing FlightAware
06:19AM 41.3200 -81.7890 56° Northeast 576 663 34,000 480 Climbing FlightAware
06:20AM 41.3780 -81.6730 56° Northeast 581 669 34,200 360 Climbing FlightAware
06:20AM 41.4400 -81.5530 55° Northeast 588 677 34,500 420 Climbing FlightAware
06:21AM 41.5070 -81.4170 57° Northeast 593 682 34,800 300 Climbing FlightAware
06:22AM 41.5660 -81.2990 56° Northeast 582 670 35,000 120 Climbing FlightAware
06:22AM 41.6340 -81.1620 56° Northeast 581 669 35,000  Level FlightAware
06:23AM 41.6950 -81.0390 56° Northeast 584 672 35,000  Level FlightAware
06:24AM 41.7540 -80.9210 56° Northeast 585 673 35,000  Level FlightAware
06:24AM 41.8190 -80.7870 57° Northeast 585 673 35,000  Level FlightAware
06:25AM 41.8810 -80.6600 57° Northeast 586 674 35,000  Level FlightAware
06:26AM 41.9370 -80.5440 57° Northeast 588 677 35,000  Level FlightAware
06:27AM 42.0020 -80.4090 57° Northeast 587 676 35,000  Level FlightAware
06:27AM 42.0610 -80.2870 57° Northeast 584 672 35,000  Level FlightAware
06:28AM 42.1280 -80.1490 57° Northeast 587 676 35,000  Level FlightAware
06:29AM 42.1860 -80.0260 57° Northeast 590 679 35,000  Level FlightAware
06:29AM 42.2560 -79.8770 58° Northeast 592 681 35,000  Level FlightAware
06:30AM 42.3140 -79.7550 57° Northeast 593 682 35,000  Level FlightAware
06:31AM 42.3730 -79.6300 57° Northeast 594 684 35,000  Level FlightAware
06:31AM 42.4320 -79.5040 58° Northeast 596 686 35,000  Level FlightAware
06:32AM 42.4900 -79.3810 57° Northeast 597 687 35,000  Level FlightAware
06:33AM 42.5500 -79.2520 58° Northeast 597 687 35,000  Level FlightAware
06:34AM 42.6080 -79.1280 58° Northeast 598 688 35,000 60 Level FlightAware
06:34AM 42.6630 -79.0070 58° Northeast 597 687 35,100 60 Climbing FlightAware
06:35AM 42.7390 -78.8410 58° Northeast 596 686 35,100 -120 Level FlightAware
06:36AM 42.7960 -78.7180 58° Northeast 589 678 35,000 -120 Descending FlightAware
06:36AM 42.8460 -78.6080 58° Northeast 586 674 35,000  Level FlightAware
06:37AM 42.9110 -78.4670 58° Northeast 587 676 35,000  Level FlightAware
06:38AM 42.9680 -78.3400 58° Northeast 588 677 35,000  Level FlightAware
06:38AM 43.0240 -78.2130 59° Northeast 590 679 35,000  Level FlightAware
06:39AM 43.0880 -78.0700 58° Northeast 589 678 35,000  Level FlightAware
06:40AM 43.1460 -77.9400 59° Northeast 590 679 35,000  Level FlightAware
06:40AM 43.2090 -77.7960 59° Northeast 589 678 35,000  Level FlightAware
06:41AM 43.2650 -77.6710 58° Northeast 594 684 35,000  Level FlightAware
06:42AM 43.3210 -77.5450 59° Northeast 597 687 35,000  Level FlightAware
06:43AM 43.3870 -77.3920 59° Northeast 599 689 35,000  Level FlightAware
06:43AM 43.4430 -77.2640 59° Northeast 601 692 35,000  Level FlightAware
06:44AM 43.5080 -77.1160 59° Northeast 605 696 35,000  Level FlightAware
06:45AM 43.5650 -76.9800 60° Northeast 607 699 35,000  Level FlightAware
06:45AM 43.6210 -76.8500 59° Northeast 610 702 35,000 60 Level FlightAware
06:46AM 43.6880 -76.6950 59° Northeast 612 704 35,100 60 Climbing FlightAware
06:47AM 43.7440 -76.5600 60° Northeast 613 705 35,100 -120 Level FlightAware
06:47AM 43.8010 -76.4260 59° Northeast 606 697 35,000 -120 Descending FlightAware
06:48AM 43.8660 -76.2720 60° Northeast 602 693 35,000  Level FlightAware
06:49AM 43.9240 -76.1440 58° Northeast 611 703 35,000  Level FlightAware
06:49AM 44.0020 -76.0320 46° Northeast 624 718 35,000  Level FlightAware
06:50AM 44.1090 -75.9260 35° Northeast 627 722 35,000 -900 Level FlightAware
06:51AM 44.2020 -75.8430 33° Northeast 625 719 33,800 -3,300 Descending FlightAware
06:52AM 44.3180 -75.7390 33° Northeast 636 732 30,400 -3,900 Descending FlightAware
06:52AM 44.4090 -75.6600 32° Northeast 650 748 28,300 -3,180 Descending FlightAware
06:53AM 44.5410 -75.5390 33° Northeast 632 727 25,900 -2,700 Descending FlightAware
06:54AM 44.6360 -75.4550 32° Northeast 602 693 24,500 -2,160 Descending FlightAware
06:54AM 44.7350 -75.3540 36° Northeast 587 676 22,900 -2,160 Descending FlightAware
06:55AM 44.8040 -75.2360 50° Northeast 568 654 21,500 -2,400 Descending FlightAware
06:56AM 44.8780 -75.1090 51° Northeast 550 633 19,500 -2,760 Descending FlightAware
06:57AM 44.9450 -74.9920 51° Northeast 535 616 17,600 -2,580 Descending FlightAware
06:57AM 45.0010 -74.8820 54° Northeast 500 575 16,100 -2,280 Descending FlightAware
06:58AM 45.0560 -74.7590 58° Northeast 462 532 14,400 -2,160 Descending FlightAware
06:59AM 45.1000 -74.6610 58° Northeast 447 514 13,100 -2,040 Descending FlightAware
06:59AM 45.1440 -74.5600 58° Northeast 439 505 11,700 -1,740 Descending FlightAware
07:00AM 45.1890 -74.4570 58° Northeast 408 470 10,700 -900 Descending FlightAware
07:01AM 45.2270 -74.3690 58° Northeast 366 421 10,500 -300 Descending FlightAware
07:01AM 45.2660 -74.2830 57° Northeast 326 375 10,300 -540 Descending FlightAware
07:02AM 45.2910 -74.2470 45° Northeast 320 368 9,900 -1,440 Descending FlightAware
07:02AM 45.3220 -74.1990 47° Northeast 320 368 9,000 -1,620 Descending FlightAware
07:03AM 45.3380 -74.1740 48° Northeast 315 362 8,700 -1,080 Descending FlightAware
07:03AM 45.3620 -74.1380 46° Northeast 305 351 8,300 -1,320 Descending FlightAware
07:04AM 45.3900 -74.0940 48° Northeast 302 348 7,500 -1,800 Descending FlightAware
07:04AM 45.4170 -74.0610 41° Northeast 300 345 6,700 -1,440 Descending FlightAware
07:04AM 45.4500 -74.0230 39° Northeast 300 345 6,200 -1,140 Descending FlightAware
07:05AM 45.4760 -73.9960 36° Northeast 296 341 5,700 -1,020 Descending FlightAware
07:05AM 45.5080 -73.9600 38° Northeast 279 321 5,300 -840 Descending FlightAware
07:06AM 45.5240 -73.9430 37° Northeast 272 313 5,100 -900 Descending FlightAware
07:06AM 45.5490 -73.9180 35° Northeast 257 296 4,700 -900 Descending FlightAware
07:06AM 45.5650 -73.9050 30° Northeast 247 284 4,500 -1,200 Descending FlightAware
07:07AM 45.5950 -73.8850 25° Northeast 242 278 3,800 -1,320 Descending FlightAware
07:07AM 45.6200 -73.8690 24° Northeast 237 273 3,300 -660 Descending FlightAware
07:08AM 45.6520 -73.8550 17° North 247 284 3,200 -720 Descending FlightAware
07:08AM 45.6840 -73.8360 23° Northeast 241 277 2,600 -1,080 Descending FlightAware
07:08AM 45.6940 -73.8350 North 221 254 2,500 -480 Descending FlightAware
07:09AM 45.7070 -73.8430 337° Northwest 184 212 2,400 -420 Descending FlightAware
07:09AM 45.7150 -73.8540 316° Northwest 175 201 2,300 -180 Descending FlightAware
07:09AM 45.7300 -73.8750 316° Northwest 168 193 2,300 -180 Level FlightAware
07:10AM 45.7370 -73.8870 310° West 160 184 2,200 -420 Descending FlightAware
07:10AM 45.7390 -73.9020 281° West 138 159 2,100 -540 Descending FlightAware
07:10AM 45.7360 -73.9250 259° West 131 151 1,800 -720 Descending FlightAware
07:11AM 45.7310 -73.9350 234° Southwest 127 146 1,600 -600 Descending FlightAware
07:11AM 45.7220 -73.9480 225° Southwest 125 144 1,400 -720 Descending FlightAware
07:11AM 45.7130 -73.9610 225° Southwest 128 147 1,100 -1,200 Descending FlightAware
07:12AM 45.6833 -73.9500 225° Southwest 130 150 700 -660 Descending Montreal Center
07:13AM 45.6833 -74.0000 270° West 130 150 300 -420 Descending Montreal Center